Flight Track Log - Related Links

Times and Time Zones

All times are in EDT time to prevent confusion due to time zone crossing. See the F-HPJG flight status page for this flight to view local times or setup timezone preferences in your user account.

Time Position Orientation Groundspeed Altitude Reporting Facility
EDT Latitude Longitude Course Direction KTS MPH feet Rate Location/Type
Wed 07:49:22 PM 40.6350 -73.7750 217° Southwest 136 157  Level FlightAware ADS-B
Wed 07:49:42 PM 40.6240 -73.7840 212° Southwest 133 153 400 1,105 Climbing FlightAware ADS-B
Wed 07:50:00 PM 40.6140 -73.7930 214° Southwest 142 163 700 1,077 Climbing FlightAware ADS-B
Wed 07:50:21 PM 40.6030 -73.8020 212° Southwest 144 166 1,100 1,174 Climbing FlightAware ADS-B
Wed 07:50:46 PM 40.5880 -73.8140 211° Southwest 150 173 1,600 933 Climbing FlightAware ADS-B
Wed 07:51:06 PM 40.5740 -73.8230 206° Southwest 175 201 1,800 857 Climbing FlightAware ADS-B
Wed 07:51:14 PM 40.5690 -73.8260 205° Southwest 186 214 2,000 1,050 Climbing FlightAware ADS-B
Wed 07:51:46 PM 40.5400 -73.8090 156° South 249 287 2,500 900 Climbing FlightAware ADS-B
Wed 07:51:54 PM 40.5350 -73.7990 123° Southeast 260 299 2,600 1,714 Climbing FlightAware ADS-B
Wed 07:52:14 PM 40.5240 -73.7680 115° Southeast 278 320 3,300 2,571 Climbing FlightAware ADS-B
Wed 07:52:36 PM 40.5120 -73.7360 116° Southeast 283 326 4,400 2,625 Climbing FlightAware ADS-B
Wed 07:52:46 PM 40.5060 -73.7190 115° Southeast 288 331 4,700 833 Climbing FlightAware ADS-B
Wed 07:53:12 PM 40.4920 -73.6800 115° Southeast 292 336 4,900 267 Climbing FlightAware ADS-B
Wed 07:53:31 PM 40.4800 -73.6490 117° Southeast 289 333 4,900  Level FlightAware ADS-B
Wed 07:53:52 PM 40.4670 -73.6160 117° Southeast 289 333 4,900  Level FlightAware ADS-B
Wed 07:54:09 PM 40.4570 -73.5880 115° Southeast 288 331 4,900  Level FlightAware ADS-B
Wed 07:54:13 PM 40.4560 -73.5810 101° East 288 331 4,900 1,333 Level FlightAware ADS-B
Wed 07:54:36 PM 40.4600 -73.5440 82° East 287 330 5,500 2,093 Climbing FlightAware ADS-B
Wed 07:54:56 PM 40.4670 -73.5100 75° East 294 338 6,400 2,923 Climbing FlightAware ADS-B
Wed 07:55:15 PM 40.4720 -73.4760 79° East 292 336 7,400 3,073 Climbing FlightAware ADS-B
Wed 07:55:37 PM 40.4780 -73.4390 78° East 293 337 8,500 2,780 Climbing FlightAware ADS-B
Wed 07:55:56 PM 40.4840 -73.4030 78° East 303 349 9,300 2,291 Climbing FlightAware ADS-B
Wed 07:56:32 PM 40.4970 -73.3380 75° East 317 365 10,600 1,667 Climbing FlightAware ADS-B
Wed 07:57:08 PM 40.5110 -73.2650 76° East 363 418 11,300 1,151 Climbing FlightAware ADS-B
Wed 07:57:45 PM 40.5260 -73.1830 76° East 403 464 12,000 1,676 Climbing FlightAware ADS-B
Wed 07:58:16 PM 40.5410 -73.1080 75° East 414 476 13,200 2,418 Climbing FlightAware ADS-B
Wed 07:58:52 PM 40.5580 -73.0180 76° East 424 488 14,700 2,384 Climbing FlightAware ADS-B
Wed 07:59:29 PM 40.5810 -72.9260 72° East 435 501 16,100 2,301 Climbing FlightAware ADS-B
Wed 08:00:05 PM 40.6030 -72.8390 72° East 441 507 17,500 2,366 Climbing FlightAware ADS-B
Wed 08:00:40 PM 40.6270 -72.7450 71° East 448 516 18,900 2,060 Climbing FlightAware ADS-B
Wed 08:01:12 PM 40.6480 -72.6620 72° East 460 529 19,800 1,765 Climbing FlightAware ADS-B
Wed 08:01:48 PM 40.6720 -72.5670 72° East 471 542 20,900 1,971 Climbing FlightAware ADS-B
Wed 08:02:22 PM 40.6960 -72.4730 71° East 477 549 22,100 1,775 Climbing FlightAware ADS-B
Wed 08:02:59 PM 40.7220 -72.3700 72° East 477 549 23,000 771 Climbing FlightAware ADS-B
Wed 08:03:32 PM 40.7460 -72.2760 71° East 480 552 23,000  Level FlightAware ADS-B
Wed 08:04:11 PM 40.7710 -72.1750 72° East 480 552 23,000 686 Level FlightAware ADS-B
Wed 08:04:42 PM 40.7940 -72.0830 72° East 484 557 23,800 1,701 Climbing FlightAware ADS-B
Wed 08:05:18 PM 40.8190 -71.9810 72° East 488 562 24,900 1,478 Climbing FlightAware ADS-B
Wed 08:05:51 PM 40.8420 -71.8890 72° East 496 571 25,500 1,355 Climbing FlightAware ADS-B
Wed 08:06:51 PM 40.8850 -71.7100 72° East 510 587 27,000 1,448 Climbing FlightAware ADS-B
Wed 08:07:47 PM 40.9260 -71.5440 72° East 519 597 28,300 957 Climbing FlightAware ADS-B
Wed 08:08:25 PM 40.9510 -71.4430 72° East 522 601 28,500 162 Climbing FlightAware ADS-B
Wed 08:09:01 PM 40.9730 -71.3490 73° East 522 601 28,500 2,240 Level FlightAware ADS-B
Wed 08:09:40 PM 41.0070 -71.2050 73° East 521 600 31,300 2,211 Climbing FlightAware ADS-B
Wed 08:10:17 PM 41.0300 -71.1090 72° East 521 600 31,300 1,745 Level FlightAware ADS-B
Wed 08:10:35 PM 41.0490 -71.0340 71° East 519 597 32,900 2,690 Climbing FlightAware ADS-B
Wed 08:11:15 PM 41.1040 -70.9320 54° Northeast 501 577 33,900 1,047 Climbing FlightAware ADS-B
Wed 08:12:01 PM 41.1650 -70.8420 48° Northeast 507 583 34,400 357 Climbing FlightAware ADS-B
Wed 08:12:39 PM 41.2160 -70.7670 48° Northeast 507 583 34,400  Level FlightAware ADS-B
Wed 08:13:15 PM 41.2640 -70.6960 48° Northeast 507 583 34,400 2,282 Level FlightAware ADS-B
Wed 08:13:50 PM 41.3380 -70.5790 50° Northeast 497 572 37,100 2,471 Climbing FlightAware ADS-B
Wed 08:14:23 PM 41.3820 -70.5120 49° Northeast 497 572 37,200 87 Climbing FlightAware ADS-B
Wed 08:14:59 PM 41.4280 -70.4410 49° Northeast 497 572 37,200 376 Level FlightAware ADS-B
Wed 08:18:25 PM 41.7590 -69.9350 49° Northeast 39,000 430 Climbing FlightAware ADS-B
Wed 08:19:10 PM 41.8290 -69.8270 49° Northeast 584 672 39,000  Level FlightAware ADS-B
Wed 08:19:46 PM 41.8690 -69.7640 50° Northeast 497 572 39,000  Level FlightAware ADS-B
Wed 08:20:30 PM 41.9440 -69.6470 49° Northeast 500 575 39,000  Level FlightAware ADS-B
Wed 08:21:02 PM 41.9920 -69.5710 50° Northeast 501 577 39,000  Level FlightAware ADS-B
Wed 08:21:40 PM 42.0570 -69.4710 49° Northeast 502 578 39,000  Level FlightAware ADS-B
Wed 08:22:12 PM 42.1020 -69.4000 49° Northeast 503 579 39,000  Level FlightAware ADS-B
Wed 08:22:45 PM 42.1550 -69.3160 50° Northeast 504 580 39,000  Level FlightAware ADS-B
Wed 08:23:25 PM 42.2160 -69.2190 50° Northeast 504 580 39,000  Level FlightAware ADS-B
Wed 08:24:00 PM 42.2710 -69.1330 49° Northeast 503 579 39,000  Level FlightAware ADS-B
Wed 08:24:31 PM 42.3160 -69.0610 50° Northeast 502 578 39,000  Level FlightAware ADS-B
Wed 08:25:06 PM 42.3700 -68.9750 50° Northeast 506 582 39,000  Level FlightAware ADS-B
Wed 08:25:56 PM 42.4440 -68.8560 50° Northeast 504 580 39,000  Level FlightAware ADS-B
Wed 08:26:39 PM 42.4990 -68.7700 49° Northeast 503 579 39,000  Level FlightAware ADS-B
Wed 08:27:16 PM 42.5470 -68.6950 49° Northeast 503 579 39,000  Level FlightAware ADS-B
Wed 08:27:52 PM 42.5940 -68.6220 49° Northeast 503 579 39,000  Level FlightAware ADS-B
Wed 08:28:28 PM 42.6400 -68.5490 49° Northeast 503 579 39,000  Level FlightAware ADS-B
Wed 08:29:04 PM 42.6870 -68.4750 49° Northeast 503 579 39,000  Level FlightAware ADS-B
Wed 08:29:40 PM 42.7340 -68.4020 49° Northeast 503 579 39,000  Level FlightAware ADS-B
Wed 08:30:17 PM 42.7820 -68.3270 49° Northeast 503 579 39,000  Level FlightAware ADS-B
Wed 08:30:53 PM 42.8280 -68.2540 49° Northeast 503 579 39,000  Level FlightAware ADS-B
Wed 08:31:30 PM 42.8760 -68.1780 49° Northeast 503 579 39,000  Level FlightAware ADS-B
Wed 08:32:06 PM 42.9230 -68.1050 49° Northeast 503 579 39,000  Level FlightAware ADS-B
Wed 08:32:43 PM 43.0410 -67.8810 54° Northeast 39,000  Level FlightAware ADS-B
Wed 08:33:24 PM 43.0980 -67.7880 50° Northeast 502 578 39,000  Level FlightAware ADS-B
Wed 08:33:56 PM 43.1560 -67.6900 51° Northeast 748 861 39,000  Level FlightAware ADS-B
Wed 08:35:13 PM 43.2670 -67.5050 50° Northeast 39,000  Level FlightAware ADS-B
Wed 08:35:43 PM 43.3110 -67.4310 51° Northeast 493 567 39,000  Level FlightAware ADS-B
Wed 08:36:17 PM 43.3590 -67.3500 51° Northeast 492 566 39,000  Level FlightAware ADS-B
Wed 08:36:53 PM 43.4100 -67.2630 51° Northeast 492 566 39,000  Level FlightAware ADS-B
Wed 08:37:33 PM 43.4680 -67.1660 50° Northeast 494 568 39,000  Level FlightAware ADS-B
Wed 08:38:03 PM 43.5150 -67.0850 51° Northeast 496 571 39,000  Level FlightAware ADS-B
Wed 08:38:38 PM 43.5660 -66.9950 52° Northeast 503 579 39,000  Level FlightAware ADS-B
Wed 08:39:18 PM 43.6100 -66.8950 59° Northeast 502 578 39,000  Level FlightAware ADS-B
Wed 08:39:49 PM 43.6470 -66.8090 59° Northeast 506 582 39,000  Level FlightAware ADS-B
Wed 08:40:23 PM 43.6910 -66.7060 59° Northeast 506 582 39,000  Level FlightAware ADS-B
Wed 08:40:58 PM 43.7330 -66.6080 59° Northeast 507 583 39,000  Level FlightAware ADS-B
Wed 08:41:33 PM 43.7730 -66.5140 59° Northeast 507 583 39,000  Level FlightAware ADS-B
Wed 08:42:08 PM 43.8150 -66.4150 60° Northeast 506 582 39,000  Level FlightAware ADS-B
Wed 08:42:43 PM 43.8560 -66.3200 59° Northeast 506 582 39,000  Level FlightAware ADS-B
Wed 08:43:18 PM 43.8980 -66.2190 60° Northeast 506 582 39,000  Level FlightAware ADS-B
Wed 08:43:53 PM 43.9400 -66.1200 59° Northeast 500 575 39,000  Level FlightAware ADS-B
Wed 08:44:28 PM 43.9810 -66.0220 60° Northeast 499 574 39,000  Level FlightAware ADS-B
Wed 08:45:03 PM 44.0210 -65.9250 60° Northeast 498 573 39,000  Level FlightAware ADS-B
Wed 08:45:38 PM 44.0620 -65.8270 60° Northeast 497 572 39,000  Level FlightAware ADS-B
Wed 08:46:13 PM 44.0990 -65.7390 60° Northeast 496 571 39,000  Level FlightAware ADS-B
Wed 08:46:53 PM 44.1480 -65.6200 60° Northeast 495 570 39,000  Level FlightAware ADS-B
Wed 08:47:29 PM 44.1850 -65.5300 60° Northeast 494 568 39,000  Level FlightAware ADS-B
Wed 08:48:09 PM 44.2330 -65.4130 60° Northeast 498 573 39,000  Level FlightAware ADS-B
Wed 08:48:49 PM 44.2790 -65.3000 60° Northeast 497 572 39,000  Level FlightAware ADS-B
Wed 08:49:24 PM 44.3190 -65.2020 60° Northeast 496 571 39,000  Level FlightAware ADS-B
Wed 08:49:59 PM 44.3590 -65.1030 61° Northeast 496 571 39,000  Level FlightAware ADS-B
Wed 08:50:31 PM 44.3920 -65.0220 60° Northeast 497 572 39,000  Level FlightAware ADS-B
Wed 08:51:16 PM 44.4480 -64.8840 60° Northeast 496 571 39,000  Level FlightAware ADS-B
Wed 08:52:05 PM 44.5000 -64.7530 61° Northeast 492 566 39,000  Level FlightAware ADS-B
Wed 08:52:40 PM 44.5400 -64.6540 60° Northeast 490 564 39,000  Level FlightAware ADS-B
Wed 08:53:16 PM 44.5790 -64.5560 61° Northeast 484 557 39,000  Level FlightAware ADS-B
Wed 08:53:59 PM 44.6270 -64.4330 61° Northeast 488 562 39,000  Level FlightAware ADS-B
Wed 08:54:31 PM 44.6560 -64.3600 61° Northeast 489 563 39,000  Level FlightAware ADS-B
Wed 08:55:06 PM 44.6970 -64.2570 61° Northeast 490 564 39,000  Level FlightAware ADS-B
Wed 08:55:41 PM 44.7350 -64.1580 62° Northeast 491 565 39,000  Level FlightAware ADS-B
Wed 08:56:16 PM 44.7750 -64.0560 61° Northeast 491 565 39,000  Level FlightAware ADS-B
Wed 08:56:51 PM 44.8110 -63.9630 61° Northeast 490 564 39,000  Level FlightAware ADS-B
Wed 08:57:26 PM 44.8490 -63.8660 61° Northeast 490 564 39,000  Level FlightAware ADS-B
Wed 08:58:02 PM 44.8860 -63.7700 61° Northeast 490 564 39,000  Level FlightAware ADS-B
Wed 08:58:34 PM 44.9240 -63.6730 61° Northeast 489 563 39,000  Level FlightAware ADS-B
Wed 08:59:11 PM 44.9640 -63.5700 61° Northeast 490 564 39,000  Level FlightAware ADS-B
Wed 08:59:47 PM 45.0010 -63.4700 62° Northeast 491 565 39,000  Level FlightAware ADS-B
Wed 09:00:19 PM 45.0320 -63.3910 61° Northeast 490 564 39,000  Level FlightAware ADS-B
Wed 09:01:09 PM 45.0660 -63.3010 62° Northeast 486 559 39,000  Level FlightAware ADS-B
Wed 09:02:07 PM 45.1430 -63.0970 62° Northeast 484 557 39,000  Level FlightAware ADS-B
Wed 09:03:00 PM 45.2050 -62.9330 62° Northeast 482 555 39,000  Level FlightAware ADS-B
Wed 09:03:37 PM 45.2380 -62.8450 62° Northeast 482 555 39,000  Level FlightAware ADS-B
Wed 09:04:13 PM 45.2700 -62.7590 62° Northeast 482 555 39,000  Level FlightAware ADS-B
Wed 09:04:49 PM 45.3020 -62.6740 62° Northeast 482 555 39,000  Level FlightAware ADS-B
Wed 09:05:25 PM 45.3340 -62.5880 62° Northeast 482 555 39,000  Level FlightAware ADS-B
Wed 09:06:01 PM 45.3660 -62.5020 62° Northeast 482 555 39,000  Level FlightAware ADS-B
Wed 09:06:38 PM 45.3990 -62.4140 62° Northeast 482 555 39,000  Level FlightAware ADS-B
Wed 09:07:14 PM 45.4310 -62.3280 62° Northeast 482 555 39,000  Level FlightAware ADS-B
Wed 09:07:50 PM 45.4630 -62.2420 62° Northeast 482 555 39,000  Level FlightAware ADS-B
Wed 09:08:26 PM 45.4950 -62.1560 62° Northeast 482 555 39,000  Level FlightAware ADS-B
Wed 09:09:02 PM 45.5270 -62.0700 62° Northeast 482 555 39,000  Level FlightAware ADS-B
Wed 09:09:38 PM 45.5590 -61.9840 62° Northeast 482 555 39,000  Level FlightAware ADS-B
Wed 09:10:14 PM 45.5910 -61.8980 62° Northeast 482 555 39,000  Level FlightAware ADS-B
Wed 09:10:50 PM 45.6230 -61.8120 62° Northeast 482 555 39,000  Level FlightAware ADS-B
Wed 09:11:26 PM 45.6550 -61.7260 62° Northeast 482 555 39,000  Level FlightAware ADS-B
Wed 09:12:02 PM 45.6870 -61.6400 62° Northeast 482 555 39,000  Level FlightAware ADS-B
Wed 09:12:58 PM 45.8240 -61.2280 64° Northeast 490 564 39,000  Level FlightAware ADS-B
Wed 09:13:32 PM 45.8590 -61.1280 63° Northeast 488 562 39,000  Level FlightAware ADS-B
Wed 09:14:06 PM 45.8930 -61.0290 64° Northeast 486 559 39,000  Level FlightAware ADS-B
Wed 09:14:42 PM 45.9300 -60.9250 63° Northeast 486 559 39,000  Level FlightAware ADS-B
Wed 09:15:18 PM 45.9660 -60.8200 64° Northeast 487 560 39,000  Level FlightAware ADS-B
Wed 09:15:54 PM 46.0020 -60.7160 63° Northeast 489 563 39,000  Level FlightAware ADS-B
Wed 09:16:26 PM 46.0340 -60.6220 64° Northeast 489 563 39,000  Level FlightAware ADS-B
Wed 09:17:04 PM 46.0720 -60.5120 63° Northeast 490 564 39,000  Level FlightAware ADS-B
Wed 09:17:40 PM 46.1080 -60.4070 64° Northeast 491 565 39,000  Level FlightAware ADS-B
Wed 09:18:16 PM 46.1440 -60.3010 64° Northeast 491 565 39,000  Level FlightAware ADS-B
Wed 09:18:48 PM 46.1750 -60.2090 64° Northeast 490 564 39,000  Level FlightAware ADS-B
Wed 09:19:24 PM 46.2110 -60.1030 64° Northeast 490 564 39,000  Level FlightAware ADS-B
Wed 09:20:00 PM 46.2470 -59.9950 64° Northeast 488 562 39,000  Level FlightAware ADS-B
Wed 09:20:32 PM 46.2780 -59.9040 64° Northeast 488 562 39,000  Level FlightAware ADS-B
Wed 09:21:06 PM 46.3110 -59.8040 64° Northeast 489 563 39,000  Level FlightAware ADS-B
Wed 09:21:44 PM 46.3490 -59.6900 64° Northeast 490 564 39,000  Level FlightAware ADS-B
Wed 09:22:18 PM 46.3810 -59.5920 65° Northeast 492 566 39,000  Level FlightAware ADS-B
Wed 09:22:55 PM 46.4190 -59.4780 64° Northeast 490 564 39,000  Level FlightAware ADS-B
Wed 09:23:31 PM 46.4530 -59.3750 64° Northeast 488 562 39,000  Level FlightAware ADS-B
Wed 09:24:03 PM 46.4840 -59.2800 65° Northeast 488 562 39,000  Level FlightAware ADS-B
Wed 09:24:37 PM 46.5170 -59.1790 65° Northeast 488 562 39,000  Level FlightAware ADS-B
Wed 09:25:15 PM 46.5530 -59.0690 65° Northeast 487 560 39,000  Level FlightAware ADS-B
Wed 09:25:47 PM 46.5840 -58.9710 65° Northeast 486 559 39,000  Level FlightAware ADS-B
Wed 09:26:25 PM 46.6200 -58.8610 64° Northeast 484 557 39,000  Level FlightAware ADS-B
Wed 09:27:01 PM 46.6530 -58.7560 65° Northeast 484 557 39,000  Level FlightAware ADS-B
Wed 09:27:35 PM 46.6860 -58.6540 65° Northeast 482 555 39,000  Level FlightAware ADS-B
Wed 09:28:11 PM 46.7190 -58.5490 65° Northeast 482 555 39,000  Level FlightAware ADS-B
Wed 09:28:45 PM 46.7510 -58.4500 65° Northeast 482 555 39,000  Level FlightAware ADS-B
Wed 09:29:21 PM 46.7840 -58.3430 66° East 482 555 39,000  Level FlightAware ADS-B
Wed 09:29:53 PM 46.8140 -58.2480 65° Northeast 482 555 39,000  Level FlightAware ADS-B
Wed 09:30:29 PM 46.8470 -58.1440 65° Northeast 480 552 39,000  Level FlightAware ADS-B
Wed 09:31:05 PM 46.8800 -58.0360 66° East 479 551 39,000  Level FlightAware ADS-B
Wed 09:31:37 PM 46.9100 -57.9410 65° Northeast 480 552 39,000  Level FlightAware ADS-B
Wed 09:32:30 PM 46.9570 -57.7870 66° East 481 554 39,000  Level FlightAware ADS-B
Wed 09:33:15 PM 46.9980 -57.6550 65° Northeast 483 556 39,000  Level FlightAware ADS-B
Wed 09:33:51 PM 47.0310 -57.5470 66° East 482 555 39,000  Level FlightAware ADS-B
Wed 09:34:34 PM 47.0710 -57.4160 66° East 481 554 39,000  Level FlightAware ADS-B
Wed 09:35:04 PM 47.0970 -57.3280 67° East 479 551 39,000  Level FlightAware ADS-B
Wed 09:35:56 PM 47.1420 -57.1780 66° East 478 550 39,000  Level FlightAware ADS-B
Wed 09:36:31 PM 47.1740 -57.0700 66° East 478 550 39,000  Level FlightAware ADS-B
Wed 09:37:14 PM 47.2140 -56.9390 66° East 480 552 39,000  Level FlightAware ADS-B
Wed 09:37:50 PM 47.2450 -56.8340 66° East 480 552 39,000  Level FlightAware ADS-B
Wed 09:38:26 PM 47.2760 -56.7270 67° East 479 551 39,000 423 Level FlightAware ADS-B
Wed 09:39:01 PM 47.3070 -56.6240 66° East 476 548 39,500 771 Climbing FlightAware ADS-B
Wed 09:39:36 PM 47.3380 -56.5190 66° East 478 550 39,900 375 Climbing FlightAware ADS-B
Wed 09:40:21 PM 47.3750 -56.3910 67° East 478 550 40,000 75 Climbing FlightAware ADS-B
Wed 09:40:56 PM 47.4050 -56.2880 67° East 479 551 40,000  Level FlightAware ADS-B
Wed 09:41:31 PM 47.4380 -56.1750 67° East 478 550 40,000  Level FlightAware ADS-B
Wed 09:42:04 PM 47.4650 -56.0770 68° East 477 549 40,000  Level FlightAware ADS-B
Wed 09:42:40 PM 47.4970 -55.9690 66° East 477 549 40,000  Level FlightAware ADS-B
Wed 09:43:18 PM 47.5300 -55.8510 67° East 478 550 40,000  Level FlightAware ADS-B
Wed 09:43:54 PM 47.5610 -55.7440 67° East 479 551 40,000  Level FlightAware ADS-B
Wed 09:44:26 PM 47.5880 -55.6480 67° East 478 550 40,000  Level FlightAware ADS-B
Wed 09:45:04 PM 47.6190 -55.5350 68° East 479 551 40,000  Level FlightAware ADS-B
Wed 09:45:40 PM 47.6510 -55.4240 67° East 481 554 40,000  Level FlightAware ADS-B
Wed 09:46:16 PM 47.6810 -55.3130 68° East 481 554 40,000  Level FlightAware ADS-B
Wed 09:46:48 PM 47.7080 -55.2170 67° East 482 555 40,000  Level FlightAware ADS-B
Wed 09:47:24 PM 47.7390 -55.1050 68° East 481 554 40,000  Level FlightAware ADS-B
Wed 09:48:01 PM 47.7690 -54.9950 68° East 484 557 40,000  Level FlightAware ADS-B
Wed 09:48:32 PM 47.7960 -54.8990 67° East 484 557 40,000  Level FlightAware ADS-B
Wed 09:49:08 PM 47.8270 -54.7860 68° East 485 558 40,000  Level FlightAware ADS-B
Wed 09:49:44 PM 47.8560 -54.6760 69° East 486 559 40,000  Level FlightAware ADS-B
Wed 09:50:20 PM 47.8870 -54.5640 68° East 486 559 40,000  Level FlightAware ADS-B
Wed 09:50:52 PM 47.9140 -54.4630 68° East 486 559 40,000  Level FlightAware ADS-B
Wed 09:51:28 PM 47.9430 -54.3530 68° East 485 558 40,000  Level FlightAware ADS-B
Wed 09:52:04 PM 47.9730 -54.2420 68° East 484 557 40,000  Level FlightAware ADS-B
Wed 09:52:41 PM 48.0030 -54.1280 68° East 481 554 40,000  Level FlightAware ADS-B
Wed 09:53:14 PM 48.0300 -54.0240 69° East 481 554 40,000  Level FlightAware ADS-B
Wed 09:53:50 PM 48.0600 -53.9120 68° East 482 555 40,000  Level FlightAware ADS-B
Wed 09:54:22 PM 48.0860 -53.8120 69° East 482 555 40,000  Level FlightAware ADS-B
Wed 09:55:00 PM 48.1160 -53.6960 69° East 484 557 40,000  Level FlightAware ADS-B
Wed 09:55:36 PM 48.1450 -53.5850 69° East 484 557 40,000  Level FlightAware ADS-B
Wed 09:56:08 PM 48.1710 -53.4840 69° East 485 558 40,000  Level FlightAware ADS-B
Wed 09:56:44 PM 48.2000 -53.3710 69° East 486 559 40,000  Level FlightAware ADS-B
Wed 09:57:20 PM 48.2290 -53.2580 69° East 485 558 40,000  Level FlightAware ADS-B
Wed 09:57:56 PM 48.2580 -53.1440 69° East 486 559 40,000  Level FlightAware ADS-B
Wed 09:58:26 PM 48.2820 -53.0490 69° East 488 562 40,000  Level FlightAware ADS-B
Wed 09:59:04 PM 48.3110 -52.9310 70° East 488 562 40,000  Level FlightAware ADS-B
Wed 09:59:40 PM 48.3400 -52.8160 69° East 489 563 40,000  Level FlightAware ADS-B
Wed 10:00:13 PM 48.3660 -52.7130 69° East 489 563 40,000  Level FlightAware ADS-B
Wed 10:00:48 PM 48.3940 -52.5990 70° East 489 563 40,000  Level FlightAware ADS-B
Wed 10:01:24 PM 48.4230 -52.4830 69° East 490 564 40,000  Level FlightAware ADS-B
Wed 10:01:58 PM 48.4480 -52.3810 70° East 491 565 40,000  Level FlightAware ADS-B
Wed 10:02:29 PM 48.4730 -52.2790 70° East 490 564 40,000  Level FlightAware ADS-B
Wed 10:03:09 PM 48.5040 -52.1520 70° East 492 566 40,000  Level FlightAware ADS-B
Wed 10:03:45 PM 48.5310 -52.0370 70° East 493 567 40,000  Level FlightAware ADS-B
Wed 10:04:15 PM 48.5560 -51.9340 70° East 492 566 40,000  Level FlightAware ADS-B
Wed 10:04:55 PM 48.5870 -51.8050 70° East 493 567 40,000  Level FlightAware ADS-B
Wed 10:05:31 PM 48.6130 -51.6970 70° East 494 568 40,000  Level FlightAware ADS-B
Wed 10:06:01 PM 48.6370 -51.5930 71° East 494 568 40,000  Level FlightAware ADS-B
Wed 10:06:36 PM 48.6640 -51.4780 70° East 496 571 40,000  Level FlightAware ADS-B
Wed 10:07:16 PM 48.6950 -51.3450 71° East 499 574 40,000  Level FlightAware ADS-B
Wed 10:07:53 PM 48.7180 -51.2470 70° East 499 574 40,000  Level FlightAware ADS-B
Wed 10:08:31 PM 48.7530 -51.0970 70° East 504 580 40,000  Level FlightAware ADS-B
Wed 10:09:01 PM 48.7750 -51.0010 71° East 505 581 40,000  Level FlightAware ADS-B
Wed 10:09:47 PM 48.8100 -50.8470 71° East 504 580 40,000  Level FlightAware ADS-B
Wed 10:10:22 PM 48.8380 -50.7250 71° East 506 582 40,000  Level FlightAware ADS-B
Wed 10:10:57 PM 48.8630 -50.6140 71° East 507 583 40,000  Level FlightAware ADS-B
Wed 10:11:32 PM 48.8900 -50.4970 71° East 509 586 40,000  Level FlightAware ADS-B
Wed 10:12:07 PM 48.9180 -50.3710 71° East 508 585 40,000  Level FlightAware ADS-B
Wed 10:12:42 PM 48.9440 -50.2540 71° East 510 587 40,000  Level FlightAware ADS-B
Wed 10:13:22 PM 48.9730 -50.1200 72° East 510 587 40,000  Level FlightAware ADS-B
Wed 10:13:58 PM 48.9930 -50.0090 75° East 512 589 40,000  Level FlightAware ADS-B
Wed 10:14:34 PM 49.0120 -49.9030 75° East 512 589 40,000  Level FlightAware ADS-B
Wed 10:15:10 PM 49.0310 -49.7960 75° East 512 589 40,000  Level FlightAware ADS-B
Wed 10:15:47 PM 49.0500 -49.6860 75° East 512 589 40,000  Level FlightAware ADS-B
Wed 10:16:25 PM 49.0700 -49.5730 75° East 512 589 40,000  Level FlightAware ADS-B
Wed 10:17:01 PM 49.0890 -49.4660 75° East 512 589 40,000  Level FlightAware ADS-B
Wed 10:17:37 PM 49.1070 -49.3590 76° East 512 589 40,000  Level FlightAware ADS-B
Wed 10:18:15 PM 49.1270 -49.2460 75° East 512 589 40,000  Level FlightAware ADS-B
Wed 10:18:51 PM 49.1460 -49.1390 75° East 512 589 40,000  Level FlightAware ADS-B
Wed 10:19:27 PM 49.1650 -49.0320 75° East 512 589 40,000  Level FlightAware ADS-B
Wed 10:20:03 PM 49.1830 -48.9250 76° East 512 589 40,000  Level FlightAware ADS-B
Wed 10:20:39 PM 49.2020 -48.8180 75° East 512 589 40,000  Level FlightAware ADS-B
Wed 10:21:15 PM 49.2210 -48.7110 75° East 512 589 40,000  Level FlightAware ADS-B
Wed 10:21:52 PM 49.2400 -48.6010 75° East 512 589 40,000  Level FlightAware ADS-B
Wed 10:22:28 PM 49.2590 -48.4930 75° East 512 589 40,000  Level FlightAware ADS-B
Wed 10:23:05 PM 49.2780 -48.3830 75° East 512 589 40,000  Level FlightAware ADS-B
Wed 10:23:44 PM 49.2333 -47.8167 75° East 520 598 40,000  Level Gander Center
Wed 10:24:44 PM 49.2667 -47.6000 77° East 520 598 40,000  Level Gander Center
Wed 10:25:44 PM 49.2833 -47.3833 83° East 520 598 40,000  Level Gander Center
Wed 10:26:44 PM 49.3167 -47.1833 76° East 530 610 40,000  Level Gander Center
Wed 10:27:44 PM 49.3333 -46.9667 83° East 530 610 40,000 Level Gander Center
Wed 10:29:00 PM 49.3607 -46.7497 79° East  Level FlightAware Approximate
Wed 10:36:00 PM 49.5330 -45.2975 79° East  Level FlightAware Approximate
Wed 10:37:00 PM 49.5561 -45.0892 80° East  Level FlightAware Approximate
Wed 10:38:00 PM 49.5789 -44.8807 80° East  Level FlightAware Approximate
Wed 10:39:00 PM 49.6013 -44.6720 81° East  Level FlightAware Approximate
Wed 10:40:00 PM 49.6233 -44.4632 81° East  Level FlightAware Approximate
Wed 10:41:00 PM 49.6449 -44.2541 81° East  Level FlightAware Approximate
Wed 10:42:00 PM 49.6661 -44.0449 81° East  Level FlightAware Approximate
Wed 10:43:00 PM 49.6870 -43.8355 81° East  Level FlightAware Approximate
Wed 10:44:00 PM 49.7075 -43.6259 81° East  Level FlightAware Approximate
Wed 10:45:00 PM 49.7276 -43.4161 81° East  Level FlightAware Approximate
Wed 10:46:00 PM 49.7473 -43.2062 82° East  Level FlightAware Approximate
Wed 10:47:00 PM 49.7667 -42.9961 82° East  Level FlightAware Approximate
Wed 10:48:00 PM 49.7857 -42.7858 82° East  Level FlightAware Approximate
Wed 10:49:00 PM 49.8043 -42.5754 82° East  Level FlightAware Approximate
Wed 10:50:00 PM 49.8225 -42.3648 82° East  Level FlightAware Approximate
Wed 10:51:00 PM 49.8403 -42.1540 82° East  Level FlightAware Approximate
Wed 10:52:00 PM 49.8577 -41.9431 83° East  Level FlightAware Approximate
Wed 10:53:00 PM 49.8748 -41.7320 83° East  Level FlightAware Approximate
Wed 10:54:00 PM 49.8915 -41.5208 83° East  Level FlightAware Approximate
Wed 10:55:00 PM 49.9078 -41.3095 83° East  Level FlightAware Approximate
Wed 10:56:00 PM 49.9237 -41.0980 83° East  Level FlightAware Approximate
Wed 10:57:00 PM 49.9392 -40.8864 83° East  Level FlightAware Approximate
Wed 10:58:00 PM 49.9544 -40.6746 84° East  Level FlightAware Approximate
Wed 10:59:00 PM 49.9691 -40.4627 84° East  Level FlightAware Approximate
Wed 11:00:00 PM 49.9835 -40.2507 84° East  Level FlightAware Approximate
Wed 11:01:00 PM 49.9975 -40.0385 84° East  Level FlightAware Approximate
Wed 11:02:00 PM 50.0239 -39.8294 78° East  Level FlightAware Approximate
Wed 11:03:00 PM 50.0528 -39.6207 78° East  Level FlightAware Approximate
Wed 11:04:00 PM 50.0813 -39.4117 78° East  Level FlightAware Approximate
Wed 11:05:00 PM 50.1094 -39.2025 78° East  Level FlightAware Approximate
Wed 11:06:00 PM 50.1371 -38.9931 78° East  Level FlightAware Approximate
Wed 11:07:00 PM 50.1645 -38.7834 78° East  Level FlightAware Approximate
Wed 11:08:00 PM 50.1925 -38.5739 78° East  Level FlightAware Approximate
Wed 11:09:00 PM 50.2202 -38.3641 78° East  Level FlightAware Approximate
Wed 11:10:00 PM 50.2475 -38.1540 78° East  Level FlightAware Approximate
Wed 11:11:00 PM 50.2745 -37.9437 79° East  Level FlightAware Approximate
Wed 11:12:00 PM 50.3010 -37.7332 79° East  Level FlightAware Approximate
Wed 11:13:00 PM 50.3272 -37.5224 79° East  Level FlightAware Approximate
Wed 11:14:00 PM 50.3531 -37.3114 79° East  Level FlightAware Approximate
Wed 11:15:00 PM 50.3785 -37.1002 79° East  Level FlightAware Approximate
Wed 11:16:00 PM 50.4035 -36.8888 79° East  Level FlightAware Approximate
Wed 11:17:00 PM 50.4282 -36.6771 80° East  Level FlightAware Approximate
Wed 11:18:00 PM 50.4524 -36.4652 80° East  Level FlightAware Approximate
Wed 11:19:00 PM 50.4763 -36.2531 80° East  Level FlightAware Approximate
Wed 11:20:00 PM 50.4998 -36.0408 80° East  Level FlightAware Approximate
Wed 11:21:00 PM 50.5229 -35.8283 80° East  Level FlightAware Approximate
Wed 11:22:00 PM 50.5457 -35.6156 80° East  Level FlightAware Approximate
Wed 11:23:00 PM 50.5680 -35.4026 81° East  Level FlightAware Approximate
Wed 11:24:00 PM 50.5900 -35.1895 81° East  Level FlightAware Approximate
Wed 11:25:00 PM 50.6115 -34.9762 81° East  Level FlightAware Approximate
Wed 11:26:00 PM 50.6327 -34.7627 81° East  Level FlightAware Approximate
Wed 11:27:00 PM 50.6535 -34.5490 81° East  Level FlightAware Approximate
Wed 11:28:00 PM 50.6739 -34.3351 81° East  Level FlightAware Approximate
Wed 11:29:00 PM 50.6939 -34.1210 82° East  Level FlightAware Approximate
Wed 11:30:00 PM 50.7135 -33.9067 82° East  Level FlightAware Approximate
Wed 11:31:00 PM 50.7327 -33.6923 82° East  Level FlightAware Approximate
Wed 11:32:00 PM 50.7515 -33.4777 82° East  Level FlightAware Approximate
Wed 11:33:00 PM 50.7700 -33.2629 82° East  Level FlightAware Approximate
Wed 11:34:00 PM 50.7880 -33.0479 82° East  Level FlightAware Approximate
Wed 11:35:00 PM 50.8056 -32.8328 83° East  Level FlightAware Approximate
Wed 11:36:00 PM 50.8229 -32.6175 83° East  Level FlightAware Approximate
Wed 11:37:00 PM 50.8397 -32.4021 83° East  Level FlightAware Approximate
Wed 11:38:00 PM 50.8562 -32.1865 83° East  Level FlightAware Approximate
Wed 11:39:00 PM 50.8722 -31.9708 83° East  Level FlightAware Approximate
Wed 11:40:00 PM 50.8879 -31.7549 83° East  Level FlightAware Approximate
Wed 11:41:00 PM 50.9031 -31.5388 84° East  Level FlightAware Approximate
Wed 11:42:00 PM 50.9180 -31.3227 84° East  Level FlightAware Approximate
Wed 11:43:00 PM 50.9324 -31.1063 84° East  Level FlightAware Approximate
Wed 11:44:00 PM 50.9465 -30.8899 84° East  Level FlightAware Approximate
Wed 11:45:00 PM 50.9602 -30.6733 84° East  Level FlightAware Approximate
Wed 11:46:00 PM 50.9734 -30.4566 84° East  Level FlightAware Approximate
Wed 11:47:00 PM 50.9863 -30.2398 85° East  Level FlightAware Approximate
Wed 11:48:00 PM 50.9987 -30.0229 85° East  Level FlightAware Approximate
Wed 11:49:00 PM 51.0082 -29.8055 86° East  Level FlightAware Approximate
Wed 11:50:00 PM 51.0162 -29.6049 86° East  Level FlightAware Approximate
Wed 11:51:00 PM 51.0240 -29.4042 86° East  Level FlightAware Approximate
Wed 11:52:00 PM 51.0314 -29.2034 87° East  Level FlightAware Approximate
Wed 11:53:00 PM 51.0384 -29.0026 87° East  Level FlightAware Approximate
Wed 11:54:00 PM 51.0451 -28.8017 87° East  Level FlightAware Approximate
Wed 11:55:00 PM 51.0515 -28.6008 87° East  Level FlightAware Approximate
Wed 11:56:00 PM 51.0575 -28.3998 87° East  Level FlightAware Approximate
Wed 11:57:00 PM 51.0631 -28.1987 87° East  Level FlightAware Approximate
Wed 11:58:00 PM 51.0685 -27.9976 88° East  Level FlightAware Approximate
Wed 11:59:00 PM 51.0734 -27.7965 88° East  Level FlightAware Approximate
Thu 12:00:00 AM 51.0781 -27.5953 88° East  Level FlightAware Approximate
Thu 12:01:00 AM 51.0824 -27.3941 88° East  Level FlightAware Approximate
Thu 12:02:00 AM 51.0863 -27.1928 88° East  Level FlightAware Approximate
Thu 12:03:00 AM 51.0899 -26.9915 88° East  Level FlightAware Approximate
Thu 12:04:00 AM 51.0931 -26.7902 88° East  Level FlightAware Approximate
Thu 12:05:00 AM 51.0960 -26.5889 89° East  Level FlightAware Approximate
Thu 12:06:00 AM 51.0986 -26.3875 89° East  Level FlightAware Approximate
Thu 12:07:00 AM 51.1008 -26.1861 89° East  Level FlightAware Approximate
Thu 12:08:00 AM 51.1027 -25.9847 89° East  Level FlightAware Approximate
Thu 12:09:00 AM 51.1042 -25.7833 89° East  Level FlightAware Approximate
Thu 12:10:00 AM 51.1054 -25.5818 89° East  Level FlightAware Approximate
Thu 12:11:00 AM 51.1062 -25.3804 90° East  Level FlightAware Approximate
Thu 12:12:00 AM 51.1067 -25.1789 90° East  Level FlightAware Approximate
Thu 12:13:00 AM 51.1068 -24.9775 90° East  Level FlightAware Approximate
Thu 12:14:00 AM 51.1066 -24.7760 90° East  Level FlightAware Approximate
Thu 12:15:00 AM 51.1060 -24.5746 90° East  Level FlightAware Approximate
Thu 12:16:00 AM 51.1051 -24.3731 90° East  Level FlightAware Approximate
Thu 12:17:00 AM 51.1039 -24.1717 90° East  Level FlightAware Approximate
Thu 12:18:00 AM 51.1023 -23.9703 91° East  Level FlightAware Approximate
Thu 12:19:00 AM 51.1003 -23.7689 91° East  Level FlightAware Approximate
Thu 12:20:00 AM 51.0980 -23.5675 91° East  Level FlightAware Approximate
Thu 12:21:00 AM 51.0954 -23.3661 91° East  Level FlightAware Approximate
Thu 12:22:00 AM 51.0924 -23.1648 91° East  Level FlightAware Approximate
Thu 12:23:00 AM 51.0891 -22.9635 91° East  Level FlightAware Approximate
Thu 12:24:00 AM 51.0854 -22.7622 92° East  Level FlightAware Approximate
Thu 12:25:00 AM 51.0814 -22.5609 92° East  Level FlightAware Approximate
Thu 12:26:00 AM 51.0770 -22.3597 92° East  Level FlightAware Approximate
Thu 12:27:00 AM 51.0723 -22.1585 92° East  Level FlightAware Approximate
Thu 12:28:00 AM 51.0673 -21.9574 92° East  Level FlightAware Approximate
Thu 12:29:00 AM 51.0619 -21.7563 92° East  Level FlightAware Approximate
Thu 12:30:00 AM 51.0561 -21.5553 93° East  Level FlightAware Approximate
Thu 12:31:00 AM 51.0501 -21.3543 93° East  Level FlightAware Approximate
Thu 12:32:00 AM 51.0436 -21.1534 93° East  Level FlightAware Approximate
Thu 12:33:00 AM 51.0368 -20.9525 93° East  Level FlightAware Approximate
Thu 12:34:00 AM 51.0297 -20.7517 93° East  Level FlightAware Approximate
Thu 12:35:00 AM 51.0223 -20.5509 93° East  Level FlightAware Approximate
Thu 12:36:00 AM 51.0145 -20.3502 93° East  Level FlightAware Approximate
Thu 12:37:00 AM 51.0063 -20.1496 94° East  Level FlightAware Approximate
Thu 12:38:00 AM 50.9984 -19.9490 93° East  Level FlightAware Approximate
Thu 12:39:00 AM 50.9917 -19.7483 93° East  Level FlightAware Approximate
Thu 12:40:00 AM 50.9848 -19.5477 93° East  Level FlightAware Approximate
Thu 12:41:00 AM 50.9775 -19.3471 93° East  Level FlightAware Approximate
Thu 12:42:00 AM 50.9698 -19.1466 93° East  Level FlightAware Approximate
Thu 12:43:00 AM 50.9618 -18.9462 94° East  Level FlightAware Approximate
Thu 12:44:00 AM 50.9534 -18.7458 94° East  Level FlightAware Approximate
Thu 12:45:00 AM 50.9447 -18.5455 94° East  Level FlightAware Approximate
Thu 12:46:00 AM 50.9357 -18.3453 94° East  Level FlightAware Approximate
Thu 12:47:00 AM 50.9263 -18.1451 94° East  Level FlightAware Approximate
Thu 12:48:00 AM 50.9166 -17.9451 94° East  Level FlightAware Approximate
Thu 12:49:00 AM 50.9066 -17.7451 94° East  Level FlightAware Approximate
Thu 12:50:00 AM 50.8961 -17.5452 95° East  Level FlightAware Approximate
Thu 12:51:00 AM 50.8854 -17.3454 95° East  Level FlightAware Approximate
Thu 12:52:00 AM 50.8743 -17.1457 95° East  Level FlightAware Approximate
Thu 12:53:00 AM 50.8629 -16.9461 95° East  Level FlightAware Approximate
Thu 12:54:00 AM 50.8512 -16.7466 95° East  Level FlightAware Approximate
Thu 12:55:00 AM 50.8391 -16.5472 95° East  Level FlightAware Approximate
Thu 12:56:00 AM 50.8266 -16.3479 96° East  Level FlightAware Approximate
Thu 12:57:00 AM 50.8138 -16.1487 96° East  Level FlightAware Approximate
Thu 12:58:00 AM 50.8007 -15.9496 96° East  Level FlightAware Approximate
Thu 12:59:00 AM 50.7873 -15.7507 96° East  Level FlightAware Approximate
Thu 01:00:00 AM 50.7734 -15.5518 96° East  Level FlightAware Approximate
Thu 01:01:00 AM 50.7593 -15.3531 96° East  Level FlightAware Approximate
Thu 01:02:00 AM 50.7448 -15.1545 96° East  Level FlightAware Approximate
Thu 01:03:00 AM 50.7299 -14.9560 97° East  Level FlightAware Approximate
Thu 01:04:00 AM 50.7143 -14.7577 97° East  Level FlightAware Approximate
Thu 01:05:00 AM 50.6984 -14.5596 97° East  Level FlightAware Approximate
Thu 01:06:00 AM 50.6821 -14.3616 97° East  Level FlightAware Approximate
Thu 01:07:00 AM 50.6655 -14.1637 97° East  Level FlightAware Approximate
Thu 01:08:00 AM 50.6485 -13.9660 98° East  Level FlightAware Approximate
Thu 01:09:00 AM 50.6312 -13.7684 98° East  Level FlightAware Approximate
Thu 01:09:50 AM 50.4050 -9.2070 98° East 530 610 41,000  Level FlightAware ADS-B
Thu 01:10:00 AM 50.6136 -13.5710 98° East  Level FlightAware Approximate
Thu 01:10:26 AM 50.3880 -9.0730 101° East 532 612 41,000  Level FlightAware ADS-B
Thu 01:11:00 AM 50.3710 -8.9410 101° East 534 615 41,000  Level FlightAware ADS-B
Thu 01:11:36 AM 50.3520 -8.8010 102° East 537 618 41,000  Level FlightAware ADS-B
Thu 01:12:11 AM 50.3350 -8.6710 102° East 538 619 41,000  Level FlightAware ADS-B
Thu 01:12:14 AM 50.3341 -8.6554 102° East 482 555 41,000  Level FlightAware UK
Thu 01:12:44 AM 50.3189 -8.5414 102° East 486 559 41,000  Level FlightAware UK
Thu 01:12:47 AM 50.3160 -8.5330 102° East 539 620 41,000  Level FlightAware ADS-B
Thu 01:13:21 AM 50.2990 -8.4010 101° East 537 618 41,000  Level FlightAware ADS-B
Thu 01:13:57 AM 50.2800 -8.2650 102° East 537 618 41,000  Level FlightAware ADS-B
Thu 01:14:31 AM 50.2630 -8.1360 102° East 539 620 41,000  Level FlightAware ADS-B
Thu 01:15:05 AM 50.2470 -8.0100 101° East 539 620 41,000  Level FlightAware ADS-B
Thu 01:15:44 AM 50.2280 -7.8590 101° East 539 620 41,000  Level FlightAware ADS-B
Thu 01:16:14 AM 50.2135 -7.7422 101° East 486 559 41,000  Level FlightAware UK
Thu 01:16:16 AM 50.2120 -7.7380 101° East 539 620 41,000  Level FlightAware ADS-B
Thu 01:16:54 AM 50.1930 -7.5940 102° East 539 620 41,000  Level FlightAware ADS-B
Thu 01:17:30 AM 50.1740 -7.4580 102° East 534 615 41,000  Level FlightAware ADS-B
Thu 01:18:01 AM 50.1580 -7.3400 102° East 531 611 41,000  Level FlightAware ADS-B
Thu 01:18:39 AM 50.1390 -7.1990 102° East 531 611 41,000  Level FlightAware ADS-B
Thu 01:19:03 AM 50.1270 -7.1080 102° East 531 611 41,000  Level FlightAware ADS-B
Thu 01:19:43 AM 50.1060 -6.9580 102° East 533 613 41,000  Level FlightAware ADS-B
Thu 01:20:15 AM 50.0890 -6.8390 103° East 531 611 41,000  Level FlightAware ADS-B
Thu 01:20:51 AM 50.0689 -6.7051 103° East 488 562 41,000  Level FlightAware UK
Thu 01:20:51 AM 50.0710 -6.7130 103° East 529 609 41,000  Level FlightAware ADS-B
Thu 01:21:21 AM 50.0536 -6.5939 103° East 490 564 41,000  Level FlightAware UK
Thu 01:21:26 AM 50.0520 -6.5780 103° East 528 608 41,000  Level FlightAware ADS-B
Thu 01:22:02 AM 50.0330 -6.4450 102° East 528 608 41,000  Level FlightAware ADS-B
Thu 01:22:34 AM 50.0160 -6.3260 102° East 526 605 41,000  Level FlightAware ADS-B
Thu 01:23:11 AM 49.9960 -6.1920 103° East 524 603 41,000  Level FlightAware ADS-B
Thu 01:23:47 AM 49.9760 -6.0570 103° East 525 604 41,000  Level FlightAware ADS-B
Thu 01:24:19 AM 49.9590 -5.9400 103° East 526 605 41,000  Level FlightAware ADS-B
Thu 01:24:21 AM 49.9570 -5.9312 103° East 494 568 41,000  Level FlightAware UK
Thu 01:24:51 AM 49.9404 -5.8214 103° East 494 568 41,000  Level FlightAware UK
Thu 01:24:55 AM 49.9400 -5.8150 103° East 525 604 41,000  Level FlightAware ADS-B
Thu 01:25:31 AM 49.9190 -5.6750 103° East 525 604 41,000  Level FlightAware ADS-B
Thu 01:26:05 AM 49.9000 -5.5540 104° East 525 604 41,000  Level FlightAware ADS-B
Thu 01:26:36 AM 49.8830 -5.4410 103° East 523 602 41,000  Level FlightAware ADS-B
Thu 01:27:18 AM 49.8590 -5.2880 104° East 523 602 41,000  Level FlightAware ADS-B
Thu 01:27:50 AM 49.8410 -5.1720 103° East 524 603 41,000  Level FlightAware ADS-B
Thu 01:28:28 AM 49.8190 -5.0330 104° East 526 605 41,000  Level FlightAware ADS-B
Thu 01:29:00 AM 49.8010 -4.9160 103° East 525 604 41,000  Level FlightAware ADS-B
Thu 01:29:33 AM 49.7806 -4.7932 103° East 492 566 41,000  Level FlightAware UK
Thu 01:29:36 AM 49.7810 -4.7910 103° East 523 602 41,000  Level FlightAware ADS-B
Thu 01:30:11 AM 49.7590 -4.6580 104° East 523 602 41,000  Level FlightAware ADS-B
Thu 01:30:47 AM 49.7380 -4.5280 104° East 522 601 41,000  Level FlightAware ADS-B
Thu 01:31:19 AM 49.7190 -4.4110 104° East 520 598 41,000  Level FlightAware ADS-B
Thu 01:31:53 AM 49.6990 -4.2890 104° East 517 595 41,000  Level FlightAware ADS-B
Thu 01:32:32 AM 49.6770 -4.1550 104° East 516 594 41,000  Level FlightAware ADS-B
Thu 01:33:08 AM 49.6560 -4.0250 104° East 514 592 41,000  Level FlightAware ADS-B
Thu 01:33:40 AM 49.6449 -3.9071 104° East 492 566 41,000  Level FlightAware UK
Thu 01:33:48 AM 49.6440 -3.8830 104° East 513 590 41,000  Level FlightAware ADS-B
Thu 01:34:23 AM 49.6370 -3.7580 95° East 515 593 41,000  Level FlightAware ADS-B
Thu 01:34:58 AM 49.6280 -3.6300 96° East 518 596 41,000  Level FlightAware ADS-B
Thu 01:35:30 AM 49.6220 -3.5230 95° East 518 596 41,000  Level FlightAware ADS-B
Thu 01:36:08 AM 49.6120 -3.3710 96° East 518 596 41,000  Level FlightAware ADS-B
Thu 01:36:46 AM 49.6020 -3.2249 96° East 496 571 41,000  Level FlightAware UK
Thu 01:36:48 AM 49.6020 -3.2210 96° East 520 598 41,000  Level FlightAware ADS-B
Thu 01:37:22 AM 49.5932 -3.0924 96° East 496 571 41,000  Level FlightAware UK
Thu 01:37:24 AM 49.5930 -3.0890 96° East 520 598 41,000  Level FlightAware ADS-B
Thu 01:37:57 AM 49.5850 -2.9720 96° East 520 598 41,000  Level FlightAware ADS-B
Thu 01:38:34 AM 49.5748 -2.8275 96° East 494 568 41,000  Level FlightAware UK
Thu 01:38:35 AM 49.5750 -2.8290 96° East 519 597 41,000  Level FlightAware ADS-B
Thu 01:39:10 AM 49.5653 -2.6952 96° East 492 566 41,000  Level FlightAware UK
Thu 01:39:12 AM 49.5650 -2.6950 96° East 519 597 41,000  Level FlightAware ADS-B
Thu 01:39:43 AM 49.5570 -2.5780 96° East 520 598 41,000  Level FlightAware ADS-B
Thu 01:40:18 AM 49.5480 -2.4570 96° East 521 600 41,000  Level FlightAware ADS-B
Thu 01:40:56 AM 49.5370 -2.3120 97° East 523 602 41,000  Level FlightAware ADS-B
Thu 01:41:27 AM 49.5290 -2.2020 96° East 523 602 41,000  Level FlightAware ADS-B
Thu 01:42:05 AM 49.5180 -2.0590 97° East 521 600 41,000  Level FlightAware ADS-B
Thu 01:42:37 AM 49.5090 -1.9460 97° East 519 597 41,000  Level FlightAware ADS-B
Thu 01:43:11 AM 49.4990 -1.8170 97° East 518 596 41,000 -164 Level FlightAware ADS-B
Thu 01:43:50 AM 49.4880 -1.6690 96° East 519 597 40,800 -560 Descending FlightAware ADS-B
Thu 01:44:26 AM 49.4770 -1.5450 98° East 517 595 40,300 -1,391 Descending FlightAware ADS-B
Thu 01:44:59 AM 49.4666 -1.4175 98° East 484 557 39,200 -1,818 Descending FlightAware UK
Thu 01:44:59 AM 49.4680 -1.4250 98° East 513 590 39,300 -2,000 Climbing FlightAware ADS-B
Thu 01:45:29 AM 49.4582 -1.3104 98° East 490 564 38,200 -2,057 Descending FlightAware UK
Thu 01:45:34 AM 49.4570 -1.3010 98° East 512 589 38,100 -2,000 Descending FlightAware ADS-B
Thu 01:46:05 AM 49.4470 -1.1805 98° East 482 555 37,000 -2,108 Descending FlightAware UK
Thu 01:46:11 AM 49.4450 -1.1610 98° East 509 586 36,800 -2,308 Descending FlightAware ADS-B
Thu 01:46:44 AM 49.4360 -1.0510 97° East 513 590 35,500 -2,435 Descending FlightAware ADS-B
Thu 01:47:20 AM 49.4240 -0.9180 98° East 515 593 34,000 -2,582 Descending FlightAware ADS-B
Thu 01:48:03 AM 49.4100 -0.7590 98° East 517 595 32,100 -2,250 Descending FlightAware ADS-B
Thu 01:48:32 AM 49.4020 -0.6590 97° East 513 590 31,300 -1,739 Descending FlightAware ADS-B
Thu 01:49:12 AM 49.3880 -0.5130 98° East 508 585 30,100 -2,260 Descending FlightAware ADS-B
Thu 01:49:49 AM 49.3810 -0.3810 95° East 512 589 28,400 -1,909 Descending FlightAware ADS-B
Thu 01:50:18 AM 49.3790 -0.2810 92° East 497 572 28,000 -381 Descending FlightAware ADS-B
Thu 01:50:52 AM 49.3760 -0.1590 92° East 485 558 28,000 -182 Level FlightAware ADS-B
Thu 01:51:24 AM 49.3715 -0.0446 92° East 468 539 27,800 -732 Descending FlightAware UK
Thu 01:51:33 AM 49.3700 -0.0130 92° East 484 557 27,500 -1,857 Descending FlightAware ADS-B
Thu 01:52:06 AM 49.3660 0.0990 93° East 475 547 26,500 -1,791 Descending FlightAware ADS-B
Thu 01:52:40 AM 49.3620 0.2020 93° East 468 539 25,500 -1,726 Descending FlightAware ADS-B
Thu 01:53:19 AM 49.3570 0.3330 93° East 455 524 24,400 -1,971 Descending FlightAware ADS-B
Thu 01:53:50 AM 49.3520 0.4390 94° East 451 519 23,200 -2,215 Descending FlightAware ADS-B
Thu 01:54:24 AM 49.3478 0.5470 94° East 428 493 22,000 -1,946 Descending FlightAware UK
Thu 01:54:27 AM 49.3480 0.5480 94° East 445 512 22,000 -2,154 Level FlightAware ADS-B
Thu 01:55:03 AM 49.3430 0.6510 94° East 437 503 20,600 -2,559 Descending FlightAware ADS-B
Thu 01:55:35 AM 49.3390 0.7550 93° East 429 494 19,100 -2,719 Descending FlightAware ADS-B
Thu 01:56:07 AM 49.3340 0.8530 94° East 420 483 17,700 -2,712 Descending FlightAware ADS-B
Thu 01:56:48 AM 49.3284 0.9814 94° East 396 456 15,800 -2,488 Descending FlightAware UK
Thu 01:56:48 AM 49.3290 0.9710 94° East 407 468 16,000 -1,886 Climbing FlightAware ADS-B
Thu 01:57:23 AM 49.3240 1.0710 94° East 392 451 14,700 -2,308 Descending FlightAware ADS-B
Thu 01:57:53 AM 49.3200 1.1520 94° East 380 437 13,500 -2,417 Descending FlightAware ADS-B
Thu 01:58:35 AM 49.3150 1.2600 94° East 363 418 11,800 -2,025 Descending FlightAware ADS-B
Thu 01:59:13 AM 49.3110 1.3510 94° East 354 407 10,800 -1,139 Descending FlightAware ADS-B
Thu 01:59:54 AM 49.3010 1.4530 99° East 308 354 10,300 -677 Descending FlightAware ADS-B
Thu 02:00:15 AM 49.2830 1.4810 135° Southeast 299 344 10,100 -514 Descending FlightAware ADS-B
Thu 02:00:29 AM 49.2670 1.4990 144° Southeast 290 334 10,000 -529 Descending FlightAware ADS-B
Thu 02:00:49 AM 49.2430 1.5240 146° Southeast 279 321 9,800 -686 Descending FlightAware ADS-B
Thu 02:01:04 AM 49.2270 1.5410 145° Southeast 273 314 9,600 -1,029 Descending FlightAware ADS-B
Thu 02:01:24 AM 49.2080 1.5610 145° Southeast 271 312 9,200 -800 Descending FlightAware ADS-B
Thu 02:01:49 AM 49.1820 1.5870 147° Southeast 271 312 9,000 -343 Descending FlightAware ADS-B
Thu 02:01:59 AM 49.1700 1.5980 149° Southeast 272 313 9,000  Level FlightAware ADS-B
Thu 02:02:24 AM 49.1440 1.6240 147° Southeast 273 314 9,000  Level FlightAware ADS-B
Thu 02:02:44 AM 49.1240 1.6450 146° Southeast 272 313 9,000  Level FlightAware ADS-B
Thu 02:03:04 AM 49.1010 1.6670 148° Southeast 270 311 9,000  Level FlightAware ADS-B
Thu 02:03:24 AM 49.0810 1.6870 147° Southeast 270 311 9,000 -400 Level FlightAware ADS-B
Thu 02:03:49 AM 49.0560 1.7160 143° Southeast 268 308 8,700 -933 Descending FlightAware ADS-B
Thu 02:04:09 AM 49.0370 1.7420 138° Southeast 267 307 8,300 -1,200 Descending FlightAware ADS-B
Thu 02:04:29 AM 49.0190 1.7680 137° Southeast 266 306 7,900 -1,200 Descending FlightAware ADS-B
Thu 02:04:44 AM 49.0060 1.7870 136° Southeast 268 308 7,600 -1,200 Descending FlightAware ADS-B
Thu 02:05:04 AM 48.9880 1.8120 138° Southeast 268 308 7,200 -900 Descending FlightAware ADS-B
Thu 02:05:24 AM 48.9700 1.8390 135° Southeast 268 308 7,000 -400 Descending FlightAware ADS-B
Thu 02:05:34 AM 48.9620 1.8530 131° Southeast 262 302 7,000  Level FlightAware ADS-B
Thu 02:05:39 AM 48.9590 1.8610 120° Southeast 265 305 7,000  Level FlightAware ADS-B
Thu 02:05:49 AM 48.9550 1.8790 109° East 263 303 7,000  Level FlightAware ADS-B
Thu 02:06:19 AM 48.9570 1.9340 87° East 242 278 7,000  Level FlightAware ADS-B
Thu 02:06:39 AM 48.9590 1.9650 84° East 225 259 7,000 -120 Level FlightAware ADS-B
Thu 02:07:09 AM 48.9620 2.0110 84° East 206 237 6,900 -400 Descending FlightAware ADS-B
Thu 02:07:24 AM 48.9630 2.0310 86° East 204 235 6,700 -1,029 Descending FlightAware ADS-B
Thu 02:07:44 AM 48.9650 2.0610 84° East 204 235 6,300 -1,050 Descending FlightAware ADS-B
Thu 02:08:04 AM 48.9660 2.0890 87° East 202 232 6,000 -600 Descending FlightAware ADS-B
Thu 02:08:24 AM 48.9680 2.1160 84° East 192 221 5,900 -667 Descending FlightAware ADS-B
Thu 02:08:49 AM 48.9700 2.1500 85° East 194 223 5,500 -1,067 Descending FlightAware ADS-B
Thu 02:09:09 AM 48.9720 2.1780 84° East 185 213 5,100 -1,024 Descending FlightAware ADS-B
Thu 02:09:30 AM 48.9730 2.2030 87° East 183 211 4,800 -878 Descending FlightAware ADS-B
Thu 02:09:50 AM 48.9740 2.2260 86° East 179 206 4,500 -923 Descending FlightAware ADS-B
Thu 02:10:09 AM 48.9760 2.2510 83° East 174 200 4,200 -1,091 Descending FlightAware ADS-B
Thu 02:10:34 AM 48.9780 2.2850 85° East 176 203 3,700 -1,067 Descending FlightAware ADS-B
Thu 02:10:54 AM 48.9790 2.3100 87° East 165 190 3,400 -800 Descending FlightAware ADS-B
Thu 02:11:04 AM 48.9800 2.3210 82° East 162 186 3,300 -857 Descending FlightAware ADS-B
Thu 02:11:29 AM 48.9810 2.3490 87° East 155 178 2,900 -766 Descending FlightAware ADS-B
Thu 02:11:51 AM 48.9820 2.3700 86° East 153 176 2,700 -732 Descending FlightAware ADS-B
Thu 02:12:10 AM 48.9830 2.3920 86° East 146 168 2,400 -923 Descending FlightAware ADS-B
Thu 02:12:30 AM 48.9850 2.4110 81° East 138 159 2,100 -750 Descending FlightAware ADS-B
Thu 02:12:50 AM 48.9860 2.4300 85° East 130 150 1,900 -600 Descending FlightAware ADS-B
Thu 02:13:10 AM 48.9870 2.4490 85° East 127 146 1,700 -667 Descending FlightAware ADS-B
Thu 02:13:35 AM 48.9880 2.4710 86° East 125 144 1,400 -667 Descending FlightAware ADS-B
Thu 02:13:55 AM 48.9890 2.4880 85° East 127 146 1,200 -600 Descending FlightAware ADS-B
Thu 02:14:15 AM 48.9900 2.5060 85° East 129 148 1,000 -686 Descending FlightAware ADS-B
Thu 02:14:30 AM 48.9910 2.5200 84° East 128 147 800 -667 Descending FlightAware ADS-B
Thu 02:14:51 AM 48.9910 2.5380 90° East 126 145 600 -750 Descending FlightAware ADS-B
Thu 02:15:10 AM 48.9920 2.5550 85° East 127 146 300 -769 Descending FlightAware ADS-B
Thu 02:15:30 AM 48.9930 2.5740 85° East 131 151 100 -600 Descending FlightAware ADS-B
Thu 02:15:50 AM 48.9940 2.5880 84° East 74 85 -300 Descending FlightAware ADS-B

Login

Don't have an account? Register now (free) for customized features, flight alerts, and more!